sensor_id;sensor_type;location;lat;lon;timestamp;P1;durP1;ratioP1;P2;durP2;ratioP2
3197;SDS011;1611;49.394;11.136;2023-02-28T00:01:04;6.05;;;3.78;;
3197;SDS011;1611;49.394;11.136;2023-02-28T00:03:30;8.23;;;3.42;;
3197;SDS011;1611;49.394;11.136;2023-02-28T00:06:00;5.75;;;3.95;;
3197;SDS011;1611;49.394;11.136;2023-02-28T00:08:27;5.25;;;3.72;;
3197;SDS011;1611;49.394;11.136;2023-02-28T00:10:54;4.57;;;3.35;;
3197;SDS011;1611;49.394;11.136;2023-02-28T00:13:22;5.35;;;3.35;;
3197;SDS011;1611;49.394;11.136;2023-02-28T00:15:57;5.03;;;3.55;;
3197;SDS011;1611;49.394;11.136;2023-02-28T00:18:25;4.47;;;3.38;;
3197;SDS011;1611;49.394;11.136;2023-02-28T00:20:52;5.20;;;3.70;;
3197;SDS011;1611;49.394;11.136;2023-02-28T00:23:19;6.50;;;3.63;;
3197;SDS011;1611;49.394;11.136;2023-02-28T00:25:46;4.50;;;3.50;;
3197;SDS011;1611;49.394;11.136;2023-02-28T00:28:12;5.18;;;3.40;;
3197;SDS011;1611;49.394;11.136;2023-02-28T00:30:41;4.72;;;3.72;;
3197;SDS011;1611;49.394;11.136;2023-02-28T00:33:07;4.85;;;3.72;;
3197;SDS011;1611;49.394;11.136;2023-02-28T00:35:34;5.32;;;3.50;;
3197;SDS011;1611;49.394;11.136;2023-02-28T00:38:01;13.52;;;3.85;;
3197;SDS011;1611;49.394;11.136;2023-02-28T00:40:28;8.48;;;3.90;;
3197;SDS011;1611;49.394;11.136;2023-02-28T00:42:55;6.15;;;3.42;;
3197;SDS011;1611;49.394;11.136;2023-02-28T00:45:22;5.35;;;3.72;;
3197;SDS011;1611;49.394;11.136;2023-02-28T00:47:50;6.55;;;4.15;;
3197;SDS011;1611;49.394;11.136;2023-02-28T00:50:16;6.05;;;3.67;;
3197;SDS011;1611;49.394;11.136;2023-02-28T00:52:44;8.40;;;3.63;;
3197;SDS011;1611;49.394;11.136;2023-02-28T00:55:10;5.65;;;3.63;;
3197;SDS011;1611;49.394;11.136;2023-02-28T00:57:37;4.35;;;3.53;;
3197;SDS011;1611;49.394;11.136;2023-02-28T01:00:05;5.03;;;3.40;;
3197;SDS011;1611;49.394;11.136;2023-02-28T01:02:33;5.63;;;3.28;;
3197;SDS011;1611;49.394;11.136;2023-02-28T01:05:02;6.00;;;4.00;;
3197;SDS011;1611;49.394;11.136;2023-02-28T01:07:30;6.10;;;3.97;;
3197;SDS011;1611;49.394;11.136;2023-02-28T01:09:57;5.07;;;3.22;;
3197;SDS011;1611;49.394;11.136;2023-02-28T01:12:23;4.40;;;3.25;;
3197;SDS011;1611;49.394;11.136;2023-02-28T01:14:50;6.30;;;4.40;;
3197;SDS011;1611;49.394;11.136;2023-02-28T01:17:17;4.60;;;4.15;;
3197;SDS011;1611;49.394;11.136;2023-02-28T01:19:44;5.20;;;3.60;;
3197;SDS011;1611;49.394;11.136;2023-02-28T01:22:12;6.30;;;4.07;;
3197;SDS011;1611;49.394;11.136;2023-02-28T01:24:38;6.75;;;3.80;;
3197;SDS011;1611;49.394;11.136;2023-02-28T01:27:05;7.72;;;4.65;;
3197;SDS011;1611;49.394;11.136;2023-02-28T01:29:32;6.65;;;4.30;;
3197;SDS011;1611;49.394;11.136;2023-02-28T01:31:59;6.10;;;4.45;;
3197;SDS011;1611;49.394;11.136;2023-02-28T01:34:25;5.50;;;4.10;;
3197;SDS011;1611;49.394;11.136;2023-02-28T01:36:52;8.63;;;4.35;;
3197;SDS011;1611;49.394;11.136;2023-02-28T01:39:20;6.72;;;3.90;;
3197;SDS011;1611;49.394;11.136;2023-02-28T01:41:48;6.75;;;3.80;;
3197;SDS011;1611;49.394;11.136;2023-02-28T01:47:19;7.20;;;4.30;;
3197;SDS011;1611;49.394;11.136;2023-02-28T01:49:46;7.80;;;5.00;;
3197;SDS011;1611;49.394;11.136;2023-02-28T01:52:13;7.10;;;3.60;;
3197;SDS011;1611;49.394;11.136;2023-02-28T01:54:44;8.95;;;4.20;;
3197;SDS011;1611;49.394;11.136;2023-02-28T01:57:14;9.60;;;4.20;;
3197;SDS011;1611;49.394;11.136;2023-02-28T01:59:45;5.35;;;4.32;;
3197;SDS011;1611;49.394;11.136;2023-02-28T02:02:17;12.60;;;4.15;;
3197;SDS011;1611;49.394;11.136;2023-02-28T02:04:49;6.38;;;3.92;;
3197;SDS011;1611;49.394;11.136;2023-02-28T02:07:18;7.07;;;4.32;;
3197;SDS011;1611;49.394;11.136;2023-02-28T02:09:47;6.75;;;4.57;;
3197;SDS011;1611;49.394;11.136;2023-02-28T02:12:16;6.00;;;4.47;;
3197;SDS011;1611;49.394;11.136;2023-02-28T02:14:54;7.13;;;4.10;;
3197;SDS011;1611;49.394;11.136;2023-02-28T02:17:32;7.20;;;4.47;;
3197;SDS011;1611;49.394;11.136;2023-02-28T02:20:13;6.20;;;4.30;;
3197;SDS011;1611;49.394;11.136;2023-02-28T02:23:06;7.20;;;4.47;;
3197;SDS011;1611;49.394;11.136;2023-02-28T02:26:09;7.00;;;4.60;;
3197;SDS011;1611;49.394;11.136;2023-02-28T02:29:09;6.68;;;3.95;;
3197;SDS011;1611;49.394;11.136;2023-02-28T02:31:56;7.85;;;4.60;;
3197;SDS011;1611;49.394;11.136;2023-02-28T02:34:50;9.35;;;4.63;;
3197;SDS011;1611;49.394;11.136;2023-02-28T02:37:25;7.10;;;4.78;;
3197;SDS011;1611;49.394;11.136;2023-02-28T02:39:58;5.65;;;4.65;;
3197;SDS011;1611;49.394;11.136;2023-02-28T02:42:29;7.25;;;4.43;;
3197;SDS011;1611;49.394;11.136;2023-02-28T02:45:03;9.52;;;5.05;;
3197;SDS011;1611;49.394;11.136;2023-02-28T02:47:32;5.97;;;4.43;;
3197;SDS011;1611;49.394;11.136;2023-02-28T02:50:04;6.40;;;4.60;;
3197;SDS011;1611;49.394;11.136;2023-02-28T02:52:34;8.13;;;5.40;;
3197;SDS011;1611;49.394;11.136;2023-02-28T02:55:05;7.50;;;4.93;;
3197;SDS011;1611;49.394;11.136;2023-02-28T02:57:36;10.07;;;5.28;;
3197;SDS011;1611;49.394;11.136;2023-02-28T03:00:10;8.07;;;5.72;;
3197;SDS011;1611;49.394;11.136;2023-02-28T03:02:38;6.60;;;5.25;;
3197;SDS011;1611;49.394;11.136;2023-02-28T03:05:12;6.88;;;4.50;;
3197;SDS011;1611;49.394;11.136;2023-02-28T03:07:43;6.10;;;5.00;;
3197;SDS011;1611;49.394;11.136;2023-02-28T03:10:33;4.38;;;4.07;;
3197;SDS011;1611;49.394;11.136;2023-02-28T03:13:12;7.63;;;4.75;;
3197;SDS011;1611;49.394;11.136;2023-02-28T03:15:53;8.80;;;5.43;;
3197;SDS011;1611;49.394;11.136;2023-02-28T03:18:25;9.10;;;5.78;;
3197;SDS011;1611;49.394;11.136;2023-02-28T03:21:01;8.60;;;4.72;;
3197;SDS011;1611;49.394;11.136;2023-02-28T03:23:35;10.65;;;5.18;;
3197;SDS011;1611;49.394;11.136;2023-02-28T03:26:11;9.27;;;5.22;;
3197;SDS011;1611;49.394;11.136;2023-02-28T03:28:47;7.65;;;4.68;;
3197;SDS011;1611;49.394;11.136;2023-02-28T03:31:19;8.93;;;5.50;;
3197;SDS011;1611;49.394;11.136;2023-02-28T03:33:50;11.18;;;5.50;;
3197;SDS011;1611;49.394;11.136;2023-02-28T03:36:23;8.55;;;5.65;;
3197;SDS011;1611;49.394;11.136;2023-02-28T03:38:56;5.90;;;4.93;;
3197;SDS011;1611;49.394;11.136;2023-02-28T03:41:28;9.80;;;5.60;;
3197;SDS011;1611;49.394;11.136;2023-02-28T03:43:59;8.80;;;5.40;;
3197;SDS011;1611;49.394;11.136;2023-02-28T03:46:31;6.60;;;5.15;;
3197;SDS011;1611;49.394;11.136;2023-02-28T03:49:02;8.25;;;5.18;;
3197;SDS011;1611;49.394;11.136;2023-02-28T03:51:36;12.52;;;5.22;;
3197;SDS011;1611;49.394;11.136;2023-02-28T03:54:07;9.25;;;5.43;;
3197;SDS011;1611;49.394;11.136;2023-02-28T03:56:38;8.13;;;5.22;;
3197;SDS011;1611;49.394;11.136;2023-02-28T03:59:10;10.18;;;6.20;;
3197;SDS011;1611;49.394;11.136;2023-02-28T04:01:41;8.65;;;5.80;;
3197;SDS011;1611;49.394;11.136;2023-02-28T04:04:10;10.52;;;6.25;;
3197;SDS011;1611;49.394;11.136;2023-02-28T04:06:40;6.65;;;4.95;;
3197;SDS011;1611;49.394;11.136;2023-02-28T04:09:08;11.15;;;5.22;;
3197;SDS011;1611;49.394;11.136;2023-02-28T04:11:37;11.13;;;5.35;;
3197;SDS011;1611;49.394;11.136;2023-02-28T04:14:06;7.38;;;5.40;;
3197;SDS011;1611;49.394;11.136;2023-02-28T04:16:34;9.77;;;5.30;;
3197;SDS011;1611;49.394;11.136;2023-02-28T04:19:03;12.18;;;6.10;;
3197;SDS011;1611;49.394;11.136;2023-02-28T04:21:32;10.57;;;5.72;;
3197;SDS011;1611;49.394;11.136;2023-02-28T04:24:01;10.73;;;6.25;;
3197;SDS011;1611;49.394;11.136;2023-02-28T04:26:29;10.88;;;6.00;;
3197;SDS011;1611;49.394;11.136;2023-02-28T04:28:56;12.13;;;5.93;;
3197;SDS011;1611;49.394;11.136;2023-02-28T04:31:23;7.68;;;5.97;;
3197;SDS011;1611;49.394;11.136;2023-02-28T04:33:50;10.45;;;6.53;;
3197;SDS011;1611;49.394;11.136;2023-02-28T04:36:17;13.63;;;6.93;;
3197;SDS011;1611;49.394;11.136;2023-02-28T04:38:44;7.45;;;5.55;;
3197;SDS011;1611;49.394;11.136;2023-02-28T04:41:13;11.10;;;6.10;;
3197;SDS011;1611;49.394;11.136;2023-02-28T04:43:40;10.93;;;6.70;;
3197;SDS011;1611;49.394;11.136;2023-02-28T04:46:07;10.18;;;6.70;;
3197;SDS011;1611;49.394;11.136;2023-02-28T04:48:36;9.48;;;6.05;;
3197;SDS011;1611;49.394;11.136;2023-02-28T04:51:04;12.02;;;7.25;;
3197;SDS011;1611;49.394;11.136;2023-02-28T04:53:33;13.27;;;7.00;;
3197;SDS011;1611;49.394;11.136;2023-02-28T04:56:00;12.75;;;6.68;;
3197;SDS011;1611;49.394;11.136;2023-02-28T04:58:29;12.20;;;6.53;;
3197;SDS011;1611;49.394;11.136;2023-02-28T05:01:00;12.13;;;7.30;;
3197;SDS011;1611;49.394;11.136;2023-02-28T05:03:29;15.70;;;7.00;;
3197;SDS011;1611;49.394;11.136;2023-02-28T05:05:55;19.88;;;7.28;;
3197;SDS011;1611;49.394;11.136;2023-02-28T05:08:22;9.50;;;6.85;;
3197;SDS011;1611;49.394;11.136;2023-02-28T05:10:50;11.55;;;6.35;;
3197;SDS011;1611;49.394;11.136;2023-02-28T05:13:16;10.07;;;6.78;;
3197;SDS011;1611;49.394;11.136;2023-02-28T05:15:44;10.27;;;6.40;;
3197;SDS011;1611;49.394;11.136;2023-02-28T05:18:11;11.65;;;6.82;;
3197;SDS011;1611;49.394;11.136;2023-02-28T05:20:40;11.65;;;8.10;;
3197;SDS011;1611;49.394;11.136;2023-02-28T05:23:07;16.60;;;8.25;;
3197;SDS011;1611;49.394;11.136;2023-02-28T05:25:36;12.05;;;7.18;;
3197;SDS011;1611;49.394;11.136;2023-02-28T05:28:03;12.10;;;7.03;;
3197;SDS011;1611;49.394;11.136;2023-02-28T05:30:30;11.23;;;7.25;;
3197;SDS011;1611;49.394;11.136;2023-02-28T05:32:58;13.95;;;7.40;;
3197;SDS011;1611;49.394;11.136;2023-02-28T05:35:25;13.55;;;7.28;;
3197;SDS011;1611;49.394;11.136;2023-02-28T05:37:52;10.50;;;7.00;;
3197;SDS011;1611;49.394;11.136;2023-02-28T05:40:19;10.48;;;6.82;;
3197;SDS011;1611;49.394;11.136;2023-02-28T05:42:46;11.90;;;7.43;;
3197;SDS011;1611;49.394;11.136;2023-02-28T05:45:13;13.05;;;6.80;;
3197;SDS011;1611;49.394;11.136;2023-02-28T05:47:39;14.77;;;8.25;;
3197;SDS011;1611;49.394;11.136;2023-02-28T05:50:08;15.60;;;7.78;;
3197;SDS011;1611;49.394;11.136;2023-02-28T05:52:36;14.18;;;7.80;;
3197;SDS011;1611;49.394;11.136;2023-02-28T05:55:03;10.25;;;7.53;;
3197;SDS011;1611;49.394;11.136;2023-02-28T05:57:30;16.17;;;7.47;;
3197;SDS011;1611;49.394;11.136;2023-02-28T05:59:57;10.55;;;7.30;;
3197;SDS011;1611;49.394;11.136;2023-02-28T06:02:24;13.65;;;8.25;;
3197;SDS011;1611;49.394;11.136;2023-02-28T06:04:50;11.73;;;6.68;;
3197;SDS011;1611;49.394;11.136;2023-02-28T06:07:19;14.35;;;7.88;;
3197;SDS011;1611;49.394;11.136;2023-02-28T06:09:47;10.70;;;7.40;;
3197;SDS011;1611;49.394;11.136;2023-02-28T06:12:14;11.02;;;8.27;;
3197;SDS011;1611;49.394;11.136;2023-02-28T06:14:41;18.65;;;7.20;;
3197;SDS011;1611;49.394;11.136;2023-02-28T06:17:08;12.95;;;6.82;;
3197;SDS011;1611;49.394;11.136;2023-02-28T06:19:36;13.68;;;6.93;;
3197;SDS011;1611;49.394;11.136;2023-02-28T06:22:03;14.18;;;7.45;;
3197;SDS011;1611;49.394;11.136;2023-02-28T06:24:32;9.60;;;7.13;;
3197;SDS011;1611;49.394;11.136;2023-02-28T06:26:58;16.73;;;7.20;;
3197;SDS011;1611;49.394;11.136;2023-02-28T06:29:30;16.08;;;7.60;;
3197;SDS011;1611;49.394;11.136;2023-02-28T06:31:56;10.18;;;7.15;;
3197;SDS011;1611;49.394;11.136;2023-02-28T06:34:23;10.35;;;6.72;;
3197;SDS011;1611;49.394;11.136;2023-02-28T06:36:51;13.98;;;7.50;;
3197;SDS011;1611;49.394;11.136;2023-02-28T06:39:18;14.68;;;7.18;;
3197;SDS011;1611;49.394;11.136;2023-02-28T06:41:46;18.52;;;8.60;;
3197;SDS011;1611;49.394;11.136;2023-02-28T06:44:13;11.32;;;6.70;;
3197;SDS011;1611;49.394;11.136;2023-02-28T06:46:41;14.63;;;7.68;;
3197;SDS011;1611;49.394;11.136;2023-02-28T06:49:08;15.02;;;7.55;;
3197;SDS011;1611;49.394;11.136;2023-02-28T06:51:36;12.02;;;8.15;;
3197;SDS011;1611;49.394;11.136;2023-02-28T06:54:04;22.10;;;9.88;;
3197;SDS011;1611;49.394;11.136;2023-02-28T06:56:34;22.50;;;11.02;;
3197;SDS011;1611;49.394;11.136;2023-02-28T06:59:02;44.92;;;26.27;;
3197;SDS011;1611;49.394;11.136;2023-02-28T07:01:30;26.77;;;16.30;;
3197;SDS011;1611;49.394;11.136;2023-02-28T07:03:57;16.83;;;11.68;;
3197;SDS011;1611;49.394;11.136;2023-02-28T07:06:25;15.48;;;9.25;;
3197;SDS011;1611;49.394;11.136;2023-02-28T07:08:52;13.95;;;8.68;;
3197;SDS011;1611;49.394;11.136;2023-02-28T07:11:20;15.80;;;9.60;;
3197;SDS011;1611;49.394;11.136;2023-02-28T07:13:50;19.20;;;8.50;;
3197;SDS011;1611;49.394;11.136;2023-02-28T07:16:19;17.42;;;8.98;;
3197;SDS011;1611;49.394;11.136;2023-02-28T07:18:46;15.27;;;9.55;;
3197;SDS011;1611;49.394;11.136;2023-02-28T07:21:13;21.83;;;12.95;;
3197;SDS011;1611;49.394;11.136;2023-02-28T07:23:40;12.05;;;9.30;;
3197;SDS011;1611;49.394;11.136;2023-02-28T07:26:07;15.80;;;9.90;;
3197;SDS011;1611;49.394;11.136;2023-02-28T07:28:39;18.42;;;9.25;;
3197;SDS011;1611;49.394;11.136;2023-02-28T07:31:07;15.88;;;8.88;;
3197;SDS011;1611;49.394;11.136;2023-02-28T07:33:36;21.13;;;8.65;;
3197;SDS011;1611;49.394;11.136;2023-02-28T07:36:03;13.93;;;8.90;;
3197;SDS011;1611;49.394;11.136;2023-02-28T07:38:33;12.50;;;8.52;;
3197;SDS011;1611;49.394;11.136;2023-02-28T07:41:00;19.10;;;13.30;;
3197;SDS011;1611;49.394;11.136;2023-02-28T07:43:29;14.52;;;8.85;;
3197;SDS011;1611;49.394;11.136;2023-02-28T07:45:56;10.95;;;8.40;;
3197;SDS011;1611;49.394;11.136;2023-02-28T07:48:28;12.95;;;8.30;;
3197;SDS011;1611;49.394;11.136;2023-02-28T07:50:56;12.77;;;7.88;;
3197;SDS011;1611;49.394;11.136;2023-02-28T07:53:23;15.52;;;10.38;;
3197;SDS011;1611;49.394;11.136;2023-02-28T07:55:50;14.23;;;9.25;;
3197;SDS011;1611;49.394;11.136;2023-02-28T07:58:20;14.48;;;9.45;;
3197;SDS011;1611;49.394;11.136;2023-02-28T08:00:46;10.98;;;7.55;;
3197;SDS011;1611;49.394;11.136;2023-02-28T08:03:13;15.65;;;9.48;;
3197;SDS011;1611;49.394;11.136;2023-02-28T08:05:40;19.67;;;9.40;;
3197;SDS011;1611;49.394;11.136;2023-02-28T08:08:08;12.35;;;8.15;;
3197;SDS011;1611;49.394;11.136;2023-02-28T08:10:35;15.25;;;9.75;;
3197;SDS011;1611;49.394;11.136;2023-02-28T08:13:03;17.70;;;10.25;;
3197;SDS011;1611;49.394;11.136;2023-02-28T08:15:30;17.83;;;9.52;;
3197;SDS011;1611;49.394;11.136;2023-02-28T08:17:56;19.70;;;9.80;;
3197;SDS011;1611;49.394;11.136;2023-02-28T08:20:23;16.98;;;9.20;;
3197;SDS011;1611;49.394;11.136;2023-02-28T08:22:50;14.77;;;9.48;;
3197;SDS011;1611;49.394;11.136;2023-02-28T08:25:19;14.77;;;9.48;;
3197;SDS011;1611;49.394;11.136;2023-02-28T08:27:46;13.02;;;9.02;;
3197;SDS011;1611;49.394;11.136;2023-02-28T08:30:13;11.77;;;8.73;;
3197;SDS011;1611;49.394;11.136;2023-02-28T08:32:41;16.02;;;9.50;;
3197;SDS011;1611;49.394;11.136;2023-02-28T08:35:08;15.52;;;9.57;;
3197;SDS011;1611;49.394;11.136;2023-02-28T08:37:35;16.58;;;9.15;;
3197;SDS011;1611;49.394;11.136;2023-02-28T08:40:02;14.85;;;9.30;;
3197;SDS011;1611;49.394;11.136;2023-02-28T08:42:31;16.02;;;9.55;;
3197;SDS011;1611;49.394;11.136;2023-02-28T08:44:58;14.50;;;9.75;;
3197;SDS011;1611;49.394;11.136;2023-02-28T08:47:25;17.88;;;10.30;;
3197;SDS011;1611;49.394;11.136;2023-02-28T08:49:52;16.52;;;9.38;;
3197;SDS011;1611;49.394;11.136;2023-02-28T08:52:18;15.85;;;9.07;;
3197;SDS011;1611;49.394;11.136;2023-02-28T08:54:45;18.67;;;9.90;;
3197;SDS011;1611;49.394;11.136;2023-02-28T08:57:12;18.35;;;10.73;;
3197;SDS011;1611;49.394;11.136;2023-02-28T08:59:40;18.40;;;9.45;;
3197;SDS011;1611;49.394;11.136;2023-02-28T09:02:08;14.25;;;9.40;;
3197;SDS011;1611;49.394;11.136;2023-02-28T09:04:35;14.25;;;8.95;;
3197;SDS011;1611;49.394;11.136;2023-02-28T09:07:02;21.15;;;8.77;;
3197;SDS011;1611;49.394;11.136;2023-02-28T09:09:28;16.98;;;10.00;;
3197;SDS011;1611;49.394;11.136;2023-02-28T09:11:55;19.73;;;9.77;;
3197;SDS011;1611;49.394;11.136;2023-02-28T09:14:22;13.80;;;8.88;;
3197;SDS011;1611;49.394;11.136;2023-02-28T09:16:51;16.50;;;9.60;;
3197;SDS011;1611;49.394;11.136;2023-02-28T09:19:17;19.75;;;9.70;;
3197;SDS011;1611;49.394;11.136;2023-02-28T09:21:44;15.20;;;9.45;;
3197;SDS011;1611;49.394;11.136;2023-02-28T09:24:11;18.20;;;9.93;;
3197;SDS011;1611;49.394;11.136;2023-02-28T09:26:40;20.88;;;9.55;;
3197;SDS011;1611;49.394;11.136;2023-02-28T09:29:07;16.75;;;9.75;;
3197;SDS011;1611;49.394;11.136;2023-02-28T09:31:33;15.25;;;9.35;;
3197;SDS011;1611;49.394;11.136;2023-02-28T09:34:01;17.70;;;8.85;;
3197;SDS011;1611;49.394;11.136;2023-02-28T09:36:29;14.43;;;8.98;;
3197;SDS011;1611;49.394;11.136;2023-02-28T09:38:58;16.38;;;9.40;;
3197;SDS011;1611;49.394;11.136;2023-02-28T09:41:25;15.30;;;9.00;;
3197;SDS011;1611;49.394;11.136;2023-02-28T09:43:55;19.30;;;10.20;;
3197;SDS011;1611;49.394;11.136;2023-02-28T09:46:27;15.50;;;8.93;;
3197;SDS011;1611;49.394;11.136;2023-02-28T09:48:57;22.85;;;9.38;;
3197;SDS011;1611;49.394;11.136;2023-02-28T09:51:40;18.33;;;8.88;;
3197;SDS011;1611;49.394;11.136;2023-02-28T09:54:15;23.90;;;9.30;;
3197;SDS011;1611;49.394;11.136;2023-02-28T09:56:44;14.95;;;9.27;;
3197;SDS011;1611;49.394;11.136;2023-02-28T09:59:18;15.82;;;8.68;;
3197;SDS011;1611;49.394;11.136;2023-02-28T10:01:55;11.38;;;8.45;;
3197;SDS011;1611;49.394;11.136;2023-02-28T10:04:36;15.57;;;8.43;;
3197;SDS011;1611;49.394;11.136;2023-02-28T10:07:15;12.25;;;8.57;;
3197;SDS011;1611;49.394;11.136;2023-02-28T10:09:49;13.63;;;8.93;;
3197;SDS011;1611;49.394;11.136;2023-02-28T10:12:19;11.33;;;7.73;;
3197;SDS011;1611;49.394;11.136;2023-02-28T10:14:47;15.03;;;8.53;;
3197;SDS011;1611;49.394;11.136;2023-02-28T10:17:17;15.47;;;8.57;;
3197;SDS011;1611;49.394;11.136;2023-02-28T10:19:49;10.00;;;7.97;;
3197;SDS011;1611;49.394;11.136;2023-02-28T10:22:24;12.40;;;8.17;;
3197;SDS011;1611;49.394;11.136;2023-02-28T10:24:55;9.60;;;7.13;;
3197;SDS011;1611;49.394;11.136;2023-02-28T10:27:28;10.43;;;7.87;;
3197;SDS011;1611;49.394;11.136;2023-02-28T10:29:57;14.80;;;8.20;;
3197;SDS011;1611;49.394;11.136;2023-02-28T10:32:27;9.97;;;7.53;;
3197;SDS011;1611;49.394;11.136;2023-02-28T10:34:57;12.07;;;7.20;;
3197;SDS011;1611;49.394;11.136;2023-02-28T10:37:27;11.60;;;8.40;;
3197;SDS011;1611;49.394;11.136;2023-02-28T10:39:55;14.43;;;8.27;;
3197;SDS011;1611;49.394;11.136;2023-02-28T10:42:23;9.90;;;7.60;;
3197;SDS011;1611;49.394;11.136;2023-02-28T10:45:10;10.60;;;7.57;;
3197;SDS011;1611;49.394;11.136;2023-02-28T10:47:40;10.93;;;8.33;;
3197;SDS011;1611;49.394;11.136;2023-02-28T10:50:29;10.23;;;8.03;;
3197;SDS011;1611;49.394;11.136;2023-02-28T10:53:07;9.33;;;7.40;;
3197;SDS011;1611;49.394;11.136;2023-02-28T10:55:42;11.77;;;8.60;;
3197;SDS011;1611;49.394;11.136;2023-02-28T10:58:20;26.50;;;7.87;;
3197;SDS011;1611;49.394;11.136;2023-02-28T11:00:48;11.10;;;8.23;;
3197;SDS011;1611;49.394;11.136;2023-02-28T11:03:25;12.13;;;7.83;;
3197;SDS011;1611;49.394;11.136;2023-02-28T11:05:56;8.77;;;6.80;;
3197;SDS011;1611;49.394;11.136;2023-02-28T11:08:25;10.00;;;7.23;;
3197;SDS011;1611;49.394;11.136;2023-02-28T11:10:55;16.60;;;7.97;;
3197;SDS011;1611;49.394;11.136;2023-02-28T11:13:25;10.37;;;7.33;;
3197;SDS011;1611;49.394;11.136;2023-02-28T11:15:59;11.20;;;7.30;;
3197;SDS011;1611;49.394;11.136;2023-02-28T11:18:29;9.90;;;8.33;;
3197;SDS011;1611;49.394;11.136;2023-02-28T11:21:06;10.80;;;9.10;;
3197;SDS011;1611;49.394;11.136;2023-02-28T11:23:36;15.70;;;9.33;;
3197;SDS011;1611;49.394;11.136;2023-02-28T11:26:07;11.57;;;7.67;;
3197;SDS011;1611;49.394;11.136;2023-02-28T11:28:36;9.70;;;7.60;;
3197;SDS011;1611;49.394;11.136;2023-02-28T11:31:09;11.40;;;8.40;;
3197;SDS011;1611;49.394;11.136;2023-02-28T11:33:44;16.20;;;8.10;;
3197;SDS011;1611;49.394;11.136;2023-02-28T11:36:14;12.27;;;8.37;;
3197;SDS011;1611;49.394;11.136;2023-02-28T11:38:44;14.37;;;9.00;;
3197;SDS011;1611;49.394;11.136;2023-02-28T11:41:18;12.83;;;8.30;;
3197;SDS011;1611;49.394;11.136;2023-02-28T11:44:03;13.53;;;8.63;;
3197;SDS011;1611;49.394;11.136;2023-02-28T11:46:40;13.10;;;7.70;;
3197;SDS011;1611;49.394;11.136;2023-02-28T11:49:17;9.83;;;7.47;;
3197;SDS011;1611;49.394;11.136;2023-02-28T11:51:56;20.10;;;7.40;;
3197;SDS011;1611;49.394;11.136;2023-02-28T11:57:32;14.73;;;7.10;;
3197;SDS011;1611;49.394;11.136;2023-02-28T12:00:08;8.13;;;7.30;;
3197;SDS011;1611;49.394;11.136;2023-02-28T12:02:50;12.20;;;7.90;;
3197;SDS011;1611;49.394;11.136;2023-02-28T12:05:28;9.30;;;7.80;;
3197;SDS011;1611;49.394;11.136;2023-02-28T12:08:06;11.37;;;7.97;;
3197;SDS011;1611;49.394;11.136;2023-02-28T12:10:52;15.60;;;8.30;;
3197;SDS011;1611;49.394;11.136;2023-02-28T12:13:29;10.90;;;7.37;;
3197;SDS011;1611;49.394;11.136;2023-02-28T12:19:02;15.87;;;9.33;;
3197;SDS011;1611;49.394;11.136;2023-02-28T12:21:43;12.67;;;8.60;;
3197;SDS011;1611;49.394;11.136;2023-02-28T12:24:36;14.17;;;8.00;;
3197;SDS011;1611;49.394;11.136;2023-02-28T12:27:17;9.50;;;7.47;;
3197;SDS011;1611;49.394;11.136;2023-02-28T12:29:49;12.03;;;7.70;;
3197;SDS011;1611;49.394;11.136;2023-02-28T12:32:21;12.07;;;8.80;;
3197;SDS011;1611;49.394;11.136;2023-02-28T12:34:52;10.03;;;8.03;;
3197;SDS011;1611;49.394;11.136;2023-02-28T12:37:25;11.00;;;7.50;;
3197;SDS011;1611;49.394;11.136;2023-02-28T12:40:00;12.77;;;7.37;;
3197;SDS011;1611;49.394;11.136;2023-02-28T12:42:32;8.27;;;7.30;;
3197;SDS011;1611;49.394;11.136;2023-02-28T12:45:07;11.10;;;8.50;;
3197;SDS011;1611;49.394;11.136;2023-02-28T12:47:37;11.10;;;7.67;;
3197;SDS011;1611;49.394;11.136;2023-02-28T12:50:07;12.50;;;8.00;;
3197;SDS011;1611;49.394;11.136;2023-02-28T12:52:37;12.53;;;8.30;;
3197;SDS011;1611;49.394;11.136;2023-02-28T12:55:15;13.23;;;8.30;;
3197;SDS011;1611;49.394;11.136;2023-02-28T12:57:52;13.03;;;8.10;;
3197;SDS011;1611;49.394;11.136;2023-02-28T13:00:29;11.77;;;8.13;;
3197;SDS011;1611;49.394;11.136;2023-02-28T13:05:59;12.13;;;9.10;;
3197;SDS011;1611;49.394;11.136;2023-02-28T13:08:52;10.47;;;7.73;;
3197;SDS011;1611;49.394;11.136;2023-02-28T13:11:31;18.63;;;8.73;;
3197;SDS011;1611;49.394;11.136;2023-02-28T13:14:06;12.30;;;8.30;;
3197;SDS011;1611;49.394;11.136;2023-02-28T13:16:48;14.50;;;7.57;;
3197;SDS011;1611;49.394;11.136;2023-02-28T13:19:20;13.60;;;7.00;;
3197;SDS011;1611;49.394;11.136;2023-02-28T13:21:49;11.73;;;8.40;;
3197;SDS011;1611;49.394;11.136;2023-02-28T13:24:36;10.77;;;8.50;;
3197;SDS011;1611;49.394;11.136;2023-02-28T13:30:01;10.43;;;7.53;;
3197;SDS011;1611;49.394;11.136;2023-02-28T13:33:21;9.93;;;8.43;;
3197;SDS011;1611;49.394;11.136;2023-02-28T13:36:09;14.80;;;9.00;;
3197;SDS011;1611;49.394;11.136;2023-02-28T13:38:49;11.40;;;8.80;;
3197;SDS011;1611;49.394;11.136;2023-02-28T13:44:11;12.30;;;8.43;;
3197;SDS011;1611;49.394;11.136;2023-02-28T13:49:44;13.27;;;8.20;;
3197;SDS011;1611;49.394;11.136;2023-02-28T13:52:12;10.83;;;8.80;;
3197;SDS011;1611;49.394;11.136;2023-02-28T13:54:48;13.70;;;7.73;;
3197;SDS011;1611;49.394;11.136;2023-02-28T13:57:41;16.60;;;8.87;;
3197;SDS011;1611;49.394;11.136;2023-02-28T14:00:18;16.33;;;9.47;;
3197;SDS011;1611;49.394;11.136;2023-02-28T14:05:43;10.67;;;8.83;;
3197;SDS011;1611;49.394;11.136;2023-02-28T14:08:12;20.63;;;10.10;;
3197;SDS011;1611;49.394;11.136;2023-02-28T14:10:43;13.50;;;9.97;;
3197;SDS011;1611;49.394;11.136;2023-02-28T14:13:14;16.77;;;10.30;;
3197;SDS011;1611;49.394;11.136;2023-02-28T14:16:09;14.03;;;8.87;;
3197;SDS011;1611;49.394;11.136;2023-02-28T14:18:37;15.30;;;8.90;;
3197;SDS011;1611;49.394;11.136;2023-02-28T14:21:13;12.05;;;9.27;;
3197;SDS011;1611;49.394;11.136;2023-02-28T14:26:55;15.43;;;8.80;;
3197;SDS011;1611;49.394;11.136;2023-02-28T14:32:31;11.07;;;8.60;;
3197;SDS011;1611;49.394;11.136;2023-02-28T14:35:03;13.53;;;8.90;;
3197;SDS011;1611;49.394;11.136;2023-02-28T14:37:44;14.30;;;8.83;;
3197;SDS011;1611;49.394;11.136;2023-02-28T14:40:12;14.77;;;9.93;;
3197;SDS011;1611;49.394;11.136;2023-02-28T14:42:46;11.20;;;8.50;;
3197;SDS011;1611;49.394;11.136;2023-02-28T14:45:18;16.47;;;9.10;;
3197;SDS011;1611;49.394;11.136;2023-02-28T14:47:45;15.23;;;10.13;;
3197;SDS011;1611;49.394;11.136;2023-02-28T14:50:17;11.73;;;9.68;;
3197;SDS011;1611;49.394;11.136;2023-02-28T14:52:46;16.40;;;10.25;;
3197;SDS011;1611;49.394;11.136;2023-02-28T14:55:18;14.90;;;9.95;;
3197;SDS011;1611;49.394;11.136;2023-02-28T14:57:52;12.77;;;8.98;;
3197;SDS011;1611;49.394;11.136;2023-02-28T15:00:21;14.40;;;9.20;;
3197;SDS011;1611;49.394;11.136;2023-02-28T15:02:50;26.98;;;9.98;;
3197;SDS011;1611;49.394;11.136;2023-02-28T15:05:25;17.38;;;10.00;;
3197;SDS011;1611;49.394;11.136;2023-02-28T15:08:03;12.18;;;9.15;;
3197;SDS011;1611;49.394;11.136;2023-02-28T15:10:32;11.13;;;8.30;;
3197;SDS011;1611;49.394;11.136;2023-02-28T15:13:00;12.90;;;8.60;;
3197;SDS011;1611;49.394;11.136;2023-02-28T15:15:33;15.25;;;9.70;;
3197;SDS011;1611;49.394;11.136;2023-02-28T15:18:07;15.82;;;9.75;;
3197;SDS011;1611;49.394;11.136;2023-02-28T15:20:40;17.20;;;9.05;;
3197;SDS011;1611;49.394;11.136;2023-02-28T15:23:11;15.30;;;9.25;;
3197;SDS011;1611;49.394;11.136;2023-02-28T15:25:38;14.65;;;8.30;;
3197;SDS011;1611;49.394;11.136;2023-02-28T15:28:09;16.30;;;9.40;;
3197;SDS011;1611;49.394;11.136;2023-02-28T15:30:49;14.63;;;8.82;;
3197;SDS011;1611;49.394;11.136;2023-02-28T15:33:19;13.02;;;8.25;;
3197;SDS011;1611;49.394;11.136;2023-02-28T15:35:47;10.50;;;7.90;;
3197;SDS011;1611;49.394;11.136;2023-02-28T15:38:17;13.57;;;8.73;;
3197;SDS011;1611;49.394;11.136;2023-02-28T15:40:49;12.88;;;8.43;;
3197;SDS011;1611;49.394;11.136;2023-02-28T15:43:26;15.52;;;10.13;;